createdAt,value
2022-07-31T04:00:32.477Z,99914.02
2022-07-31T04:03:08.613Z,99910.48
2022-07-31T04:05:54.753Z,99908.98
2022-07-31T04:08:24.674Z,99913.35
2022-07-31T04:10:52.564Z,99917.35
2022-07-31T04:13:21.705Z,99913.85
2022-07-31T04:15:49.560Z,99915.86
2022-07-31T04:18:17.268Z,99917.28
2022-07-31T04:20:46.725Z,99914.08
2022-07-31T04:23:14.672Z,99916.34
2022-07-31T04:26:25.530Z,99915.34
2022-07-31T04:29:03.211Z,99911.59
2022-07-31T04:31:31.927Z,99911.09
2022-07-31T04:34:02.579Z,99910.84
2022-07-31T04:36:30.983Z,99910.22
2022-07-31T04:39:01.259Z,99907.96
2022-07-31T04:41:29.893Z,99903.79
2022-07-31T04:43:57.530Z,99902.34
2022-07-31T04:46:26.451Z,99903.69
2022-07-31T04:48:55.494Z,99904.73
2022-07-31T04:51:26.715Z,99904.52
2022-07-31T04:53:54.213Z,99908.27
2022-07-31T04:56:41.673Z,99910.80
2022-07-31T04:59:11.449Z,99914.61
2022-07-31T05:01:42.734Z,99913.86
2022-07-31T05:04:11.897Z,99913.98
2022-07-31T05:06:45.454Z,99917.13
2022-07-31T05:09:19.107Z,99916.71
2022-07-31T05:11:49.590Z,99914.63
2022-07-31T05:14:19.865Z,99913.45
2022-07-31T05:16:47.286Z,99910.94
2022-07-31T05:19:16.782Z,99910.16
2022-07-31T05:22:04.787Z,99907.81
2022-07-31T05:24:43.289Z,99906.08
2022-07-31T05:27:13.172Z,99901.98
2022-07-31T05:29:42.327Z,99908.81
2022-07-31T05:32:10.080Z,99906.59
2022-07-31T05:34:37.731Z,99904.45
2022-07-31T05:37:05.407Z,99904.54
2022-07-31T05:39:35.598Z,99904.80
2022-07-31T05:42:21.684Z,99902.63
2022-07-31T05:45:09.770Z,99903.60
2022-07-31T05:47:40.765Z,99901.64
2022-07-31T05:50:10.190Z,99898.06
2022-07-31T05:52:38.310Z,99896.10
2022-07-31T05:55:13.424Z,99892.67
2022-07-31T05:58:00.544Z,99885.13
2022-07-31T06:00:29.953Z,99885.35
2022-07-31T06:03:01.903Z,99883.89
2022-07-31T06:05:56.960Z,99875.89
2022-07-31T06:08:25.932Z,99874.35
2022-07-31T06:10:53.731Z,99869.98
2022-07-31T06:13:25.284Z,99865.80
2022-07-31T06:15:53.551Z,99865.72
2022-07-31T06:18:22.188Z,99869.40
2022-07-31T06:20:50.998Z,99865.16
2022-07-31T06:23:22.913Z,99864.43
2022-07-31T06:26:06.353Z,99869.69
2022-07-31T06:28:48.074Z,99876.58
2022-07-31T06:31:22.661Z,99877.02
2022-07-31T06:33:53.008Z,99875.52
2022-07-31T06:36:23.973Z,99873.94
2022-07-31T06:39:14.632Z,99868.45
2022-07-31T06:42:27.052Z,99868.41
2022-07-31T06:45:08.690Z,99872.79
2022-07-31T06:47:57.505Z,99874.16
2022-07-31T06:50:49.076Z,99871.92
2022-07-31T06:53:31.928Z,99868.27
2022-07-31T06:56:00.072Z,99863.60
2022-07-31T06:58:27.781Z,99863.55
2022-07-31T07:00:55.258Z,99858.42
2022-07-31T07:03:22.418Z,99856.23
2022-07-31T07:05:49.844Z,99855.34
2022-07-31T07:08:16.902Z,99857.32
2022-07-31T07:10:45.711Z,99860.88
2022-07-31T07:13:45.714Z,99861.00
2022-07-31T07:16:18.097Z,99854.08
2022-07-31T07:18:45.818Z,99853.11
2022-07-31T07:21:13.015Z,99853.88
2022-07-31T07:23:41.030Z,99856.18
2022-07-31T07:26:22.926Z,99855.84
2022-07-31T07:28:50.332Z,99852.23
2022-07-31T07:31:19.171Z,99848.05
2022-07-31T07:33:48.414Z,99849.05
2022-07-31T07:36:23.898Z,99847.68
2022-07-31T07:39:18.483Z,99849.44
2022-07-31T07:41:46.634Z,99848.30
2022-07-31T07:44:14.356Z,99852.77
2022-07-31T07:46:42.580Z,99854.29
2022-07-31T07:49:12.032Z,99854.58
2022-07-31T07:52:15.702Z,99855.70
2022-07-31T07:55:05.258Z,99855.55
2022-07-31T07:57:51.934Z,99856.89
2022-07-31T08:00:46.487Z,99854.34
2022-07-31T08:03:49.801Z,99853.08
2022-07-31T08:06:02.064Z,99850.14
2022-07-31T08:08:29.930Z,99849.20
2022-07-31T08:11:20.202Z,99851.70
2022-07-31T08:14:38.597Z,99849.57
2022-07-31T08:17:29.320Z,99850.90
2022-07-31T08:19:58.499Z,99847.97
2022-07-31T08:22:26.822Z,99848.19
2022-07-31T08:24:56.472Z,99849.99
2022-07-31T08:27:24.093Z,99851.75
2022-07-31T08:30:08.465Z,99852.29
2022-07-31T08:32:36.506Z,99850.27
2022-07-31T08:35:19.323Z,99847.41
2022-07-31T08:37:51.276Z,99850.64
2022-07-31T08:40:43.201Z,99850.73
2022-07-31T08:44:01.831Z,99848.55
2022-07-31T08:46:04.798Z,99852.41
2022-07-31T08:48:41.280Z,99853.30
2022-07-31T08:51:12.459Z,99856.44
2022-07-31T08:54:01.919Z,99858.61
2022-07-31T08:56:30.158Z,99858.39
2022-07-31T08:58:59.538Z,99858.96
2022-07-31T09:01:27.871Z,99858.80
2022-07-31T09:03:58.634Z,99858.52
2022-07-31T09:06:26.417Z,99857.54
2022-07-31T09:08:56.646Z,99856.39
2022-07-31T09:11:24.524Z,99857.94
2022-07-31T09:14:04.440Z,99857.48
2022-07-31T09:16:50.462Z,99861.06
2022-07-31T09:19:54.178Z,99857.52
2022-07-31T09:23:09.582Z,99854.64
2022-07-31T09:25:52.656Z,99853.05
2022-07-31T09:28:25.017Z,99856.91
2022-07-31T09:30:56.104Z,99855.23
2022-07-31T09:33:42.332Z,99860.84
2022-07-31T09:36:36.992Z,99860.63
2022-07-31T09:39:35.979Z,99857.97
2022-07-31T09:42:36.376Z,99859.49
2022-07-31T09:45:22.252Z,99853.38
2022-07-31T09:48:15.137Z,99858.34
2022-07-31T09:50:55.355Z,99855.67
2022-07-31T09:53:24.703Z,99854.03
2022-07-31T09:55:58.286Z,99852.23
2022-07-31T09:58:26.072Z,99855.30
2022-07-31T10:00:56.500Z,99854.67
2022-07-31T10:03:26.685Z,99855.35
2022-07-31T10:05:56.318Z,99852.33
2022-07-31T10:08:28.960Z,99850.36
2022-07-31T10:11:20.264Z,99852.94
2022-07-31T10:13:59.702Z,99853.30
2022-07-31T10:16:31.823Z,99853.77
2022-07-31T10:19:19.764Z,99849.13
2022-07-31T10:22:12.957Z,99850.92
2022-07-31T10:24:45.751Z,99846.23
2022-07-31T10:27:18.662Z,99849.17
2022-07-31T10:29:52.701Z,99848.72
2022-07-31T10:32:22.385Z,99853.66
2022-07-31T10:35:09.578Z,99849.99
2022-07-31T10:38:35.399Z,99852.98
2022-07-31T10:41:36.400Z,99859.52
2022-07-31T10:44:44.000Z,99859.23
2022-07-31T10:47:33.883Z,99857.14
2022-07-31T10:50:33.861Z,99859.37
2022-07-31T10:53:15.363Z,99858.08
2022-07-31T10:56:04.947Z,99860.15
2022-07-31T10:59:01.589Z,99859.58
2022-07-31T11:01:52.805Z,99861.09
2022-07-31T11:04:41.952Z,99862.40
2022-07-31T11:07:30.640Z,99856.48
2022-07-31T11:10:53.792Z,99855.55
2022-07-31T11:13:55.433Z,99856.54
2022-07-31T11:16:55.486Z,99857.66
2022-07-31T11:19:43.626Z,99857.36
2022-07-31T11:22:32.363Z,99858.16
2022-07-31T11:25:01.634Z,99856.14
2022-07-31T11:27:31.657Z,99857.63
2022-07-31T11:30:12.432Z,99858.02
2022-07-31T11:32:53.525Z,99862.54
2022-07-31T11:35:30.144Z,99859.47
2022-07-31T11:37:59.820Z,99857.31
2022-07-31T11:40:28.452Z,99859.56
2022-07-31T11:43:25.377Z,99860.39
2022-07-31T11:45:55.871Z,99864.23
2022-07-31T11:48:27.725Z,99859.77
2022-07-31T11:50:56.075Z,99861.89
2022-07-31T11:53:24.084Z,99864.18
2022-07-31T11:55:54.468Z,99863.73
2022-07-31T11:58:24.001Z,99865.91
2022-07-31T12:00:54.964Z,99864.19
2022-07-31T12:03:39.157Z,99866.50
2022-07-31T12:06:08.606Z,99866.95
2022-07-31T12:08:38.250Z,99867.70
2022-07-31T12:11:09.148Z,99867.80
2022-07-31T12:13:38.512Z,99871.97
2022-07-31T12:16:11.251Z,99872.59
2022-07-31T12:18:50.243Z,99873.05
2022-07-31T12:21:19.336Z,99873.70
2022-07-31T12:23:53.181Z,99875.14
2022-07-31T12:26:28.182Z,99878.40
2022-07-31T12:29:19.873Z,99878.78
2022-07-31T12:31:52.809Z,99882.54
2022-07-31T12:34:27.571Z,99880.77
2022-07-31T12:37:04.039Z,99883.05
2022-07-31T12:39:54.251Z,99884.16
2022-07-31T12:42:34.061Z,99886.34
2022-07-31T12:45:18.406Z,99879.13
2022-07-31T12:47:54.456Z,99880.31
2022-07-31T12:50:24.611Z,99886.20
2022-07-31T12:52:53.344Z,99887.55
2022-07-31T12:55:22.451Z,99889.55
2022-07-31T12:57:52.180Z,99886.02
2022-07-31T13:00:23.290Z,99884.29
2022-07-31T13:02:52.130Z,99885.66
2022-07-31T13:05:20.264Z,99882.20
2022-07-31T13:07:48.825Z,99885.55
2022-07-31T13:10:21.973Z,99885.73
2022-07-31T13:12:52.313Z,99892.80
2022-07-31T13:15:23.078Z,99891.83
2022-07-31T13:17:51.068Z,99890.59
2022-07-31T13:20:18.785Z,99889.36
2022-07-31T13:22:46.493Z,99883.92
2022-07-31T13:25:14.096Z,99887.48
2022-07-31T13:27:41.657Z,99889.11
2022-07-31T13:30:09.744Z,99888.02
2022-07-31T13:32:37.549Z,99887.94
2022-07-31T13:35:26.983Z,99883.97
2022-07-31T13:37:53.913Z,99881.86
2022-07-31T13:40:42.013Z,99880.83
2022-07-31T13:43:09.559Z,99878.14
2022-07-31T13:45:37.178Z,99871.57
2022-07-31T13:48:09.333Z,99875.19
2022-07-31T13:50:42.208Z,99880.75
2022-07-31T13:53:10.856Z,99880.88
2022-07-31T13:55:39.489Z,99884.44
2022-07-31T13:58:08.329Z,99884.48
2022-07-31T14:00:36.632Z,99882.12
2022-07-31T14:03:04.379Z,99881.89
2022-07-31T14:05:32.627Z,99889.30
2022-07-31T14:08:33.456Z,99886.26
2022-07-31T14:10:59.001Z,99890.73
2022-07-31T14:13:28.708Z,99890.61
2022-07-31T14:15:56.976Z,99890.98
2022-07-31T14:18:25.060Z,99889.11
2022-07-31T14:20:53.274Z,99888.39
2022-07-31T14:23:21.119Z,99889.90
2022-07-31T14:26:02.511Z,99895.31
2022-07-31T14:28:31.218Z,99898.38
2022-07-31T14:30:59.063Z,99901.28
2022-07-31T14:33:27.202Z,99908.20
2022-07-31T14:35:54.650Z,99909.41
2022-07-31T14:38:27.452Z,99914.46
2022-07-31T14:40:55.944Z,99916.56
2022-07-31T14:43:23.176Z,99913.33
2022-07-31T14:45:52.150Z,99916.23
2022-07-31T14:48:21.808Z,99916.33
2022-07-31T14:50:48.839Z,99915.83
2022-07-31T14:53:16.972Z,99916.46
2022-07-31T14:55:44.669Z,99919.06
2022-07-31T14:58:11.727Z,99922.42
2022-07-31T15:00:38.601Z,99925.35
2022-07-31T15:03:06.875Z,99930.17
2022-07-31T15:06:41.932Z,99932.09
2022-07-31T15:08:22.663Z,99930.49
2022-07-31T15:10:49.589Z,99929.24
2022-07-31T15:13:16.618Z,99929.85
2022-07-31T15:15:45.361Z,99929.51
2022-07-31T15:18:12.930Z,99925.77
2022-07-31T15:20:40.639Z,99928.34
2022-07-31T15:23:08.068Z,99927.48
2022-07-31T15:25:36.452Z,99926.60
2022-07-31T15:28:04.383Z,99929.71
2022-07-31T15:30:32.515Z,99927.39
2022-07-31T15:33:00.266Z,99930.11
2022-07-31T15:35:29.246Z,99925.46
2022-07-31T15:38:09.183Z,99928.68
2022-07-31T15:40:36.934Z,99932.96
2022-07-31T15:43:05.217Z,99931.83
2022-07-31T15:45:33.296Z,99933.98
2022-07-31T15:48:01.389Z,99937.08
2022-07-31T15:50:29.213Z,99936.58
2022-07-31T15:52:57.482Z,99934.95
2022-07-31T15:55:26.412Z,99936.73
2022-07-31T15:57:55.586Z,99937.02
2022-07-31T16:00:24.481Z,99935.30
2022-07-31T16:02:52.520Z,99940.23
2022-07-31T16:05:35.849Z,99940.36
2022-07-31T16:08:30.919Z,99938.47
2022-07-31T16:10:55.901Z,99934.75
2022-07-31T16:13:25.068Z,99935.00
2022-07-31T16:15:53.942Z,99935.75
2022-07-31T16:18:21.919Z,99939.89
2022-07-31T16:20:49.892Z,99937.58
2022-07-31T16:23:17.697Z,99939.11
2022-07-31T16:25:45.373Z,99941.05
2022-07-31T16:28:14.938Z,99936.86
2022-07-31T16:30:45.686Z,99934.52
2022-07-31T16:33:14.269Z,99935.82
2022-07-31T16:35:42.852Z,99937.95
2022-07-31T16:38:10.538Z,99935.48
2022-07-31T16:40:38.330Z,99935.95
2022-07-31T16:43:46.807Z,99933.27
2022-07-31T16:45:56.565Z,99936.63
2022-07-31T16:48:24.405Z,99931.33
2022-07-31T16:50:53.236Z,99929.30
2022-07-31T16:54:12.046Z,99936.22
2022-07-31T16:56:13.837Z,99934.65
2022-07-31T16:58:41.242Z,99940.02
2022-07-31T17:01:57.259Z,99940.98
2022-07-31T17:04:03.878Z,99941.33
2022-07-31T17:06:37.760Z,99943.95
2022-07-31T17:09:15.749Z,99947.81
2022-07-31T17:11:52.542Z,99948.02
2022-07-31T17:14:24.089Z,99946.59
2022-07-31T17:16:53.515Z,99942.11
2022-07-31T17:19:42.333Z,99941.66
2022-07-31T17:22:17.659Z,99940.99
2022-07-31T17:24:51.307Z,99937.98
2022-07-31T17:27:20.279Z,99936.93
2022-07-31T17:29:48.543Z,99937.05
2022-07-31T17:32:17.113Z,99938.59
2022-07-31T17:34:46.371Z,99940.02
2022-07-31T17:37:17.065Z,99944.08
2022-07-31T17:39:45.579Z,99944.86
2022-07-31T17:42:14.113Z,99948.54
2022-07-31T17:44:41.865Z,99947.86
2022-07-31T17:47:15.160Z,99948.64
2022-07-31T17:49:43.127Z,99944.34
2022-07-31T17:52:10.932Z,99943.14
2022-07-31T17:54:38.845Z,99935.22
2022-07-31T17:57:06.334Z,99936.64
2022-07-31T17:59:34.070Z,99936.48
2022-07-31T18:02:03.534Z,99940.94
2022-07-31T18:04:39.452Z,99943.83
2022-07-31T18:07:08.737Z,99944.48
2022-07-31T18:09:36.865Z,99946.52
2022-07-31T18:12:04.614Z,99948.94
2022-07-31T18:14:31.856Z,99946.32
2022-07-31T18:16:59.871Z,99952.34
2022-07-31T18:19:27.605Z,99953.67
2022-07-31T18:21:55.429Z,99957.77
2022-07-31T18:24:24.004Z,99957.61
2022-07-31T18:26:53.509Z,99958.20
2022-07-31T18:29:21.561Z,99958.13
2022-07-31T18:31:49.012Z,99959.92
2022-07-31T18:34:16.790Z,99958.04
2022-07-31T18:36:44.198Z,99956.41
2022-07-31T18:39:12.020Z,99952.64
2022-07-31T18:42:07.077Z,99953.91
2022-07-31T18:44:35.764Z,99955.11
2022-07-31T18:47:26.038Z,99960.24
2022-07-31T18:50:59.211Z,99961.28
2022-07-31T18:52:40.459Z,99961.08
2022-07-31T18:55:09.065Z,99963.11
2022-07-31T18:57:36.336Z,99959.38
2022-07-31T19:00:07.591Z,99961.14
2022-07-31T19:02:36.501Z,99959.61
2022-07-31T19:05:04.020Z,99960.23
2022-07-31T19:07:35.939Z,99964.89
2022-07-31T19:10:07.474Z,99959.63
2022-07-31T19:12:35.688Z,99961.30
2022-07-31T19:15:04.575Z,99964.20
2022-07-31T19:17:43.266Z,99966.14
2022-07-31T19:20:14.919Z,99966.78
2022-07-31T19:23:01.687Z,99966.23
2022-07-31T19:25:59.467Z,99967.59
2022-07-31T19:28:23.091Z,99969.80
2022-07-31T19:30:55.700Z,99963.53
2022-07-31T19:33:23.929Z,99969.83
2022-07-31T19:35:56.951Z,99969.25
2022-07-31T19:38:31.716Z,99966.85
2022-07-31T19:41:00.698Z,99965.29
2022-07-31T19:43:29.588Z,99966.52
2022-07-31T19:46:09.915Z,99966.86
2022-07-31T19:48:43.192Z,99968.96
2022-07-31T19:51:13.435Z,99970.14
2022-07-31T19:53:41.960Z,99964.89
2022-07-31T19:56:11.042Z,99969.17
2022-07-31T19:58:41.753Z,99973.31
2022-07-31T20:01:11.489Z,99970.09
2022-07-31T20:03:40.468Z,99967.23
2022-07-31T20:06:13.334Z,99961.84
2022-07-31T20:08:41.391Z,99962.21
2022-07-31T20:11:09.292Z,99960.84
2022-07-31T20:13:38.249Z,99963.10
2022-07-31T20:16:06.856Z,99963.75
2022-07-31T20:18:34.844Z,99960.66
2022-07-31T20:21:10.011Z,99959.33
2022-07-31T20:23:39.166Z,99954.64
2022-07-31T20:26:24.995Z,99952.30
2022-07-31T20:28:53.816Z,99954.77
2022-07-31T20:31:21.869Z,99954.73
2022-07-31T20:33:57.528Z,99950.88
2022-07-31T20:36:28.358Z,99951.30
2022-07-31T20:38:58.413Z,99949.16
2022-07-31T20:41:30.040Z,99948.16
2022-07-31T20:44:00.711Z,99945.77
2022-07-31T20:46:30.306Z,99942.55
2022-07-31T20:48:59.326Z,99942.57
2022-07-31T20:51:28.819Z,99937.83
2022-07-31T20:53:57.235Z,99938.71
2022-07-31T20:56:25.083Z,99939.00
2022-07-31T20:58:52.799Z,99937.74
